Time;durP1;ratioP1;P1;durP2;ratioP2;P2;SDS_P1;SDS_P2;PMS_P1;PMS_P2;Temp;Humidity;BMP_temperature;BMP_pressure;BME280_temperature;BME280_humidity;BME280_pressure;Samples;Min_cycle;Max_cycle;Signal;HPM_P1;HPM_P2
2023/09/15 00:01:05;;;;;;;0.40;0.40;;;;;;;;;;5052930;28;20207;-84
2023/09/15 00:03:35;;;;;;;0.40;0.40;;;;;;;;;;5053062;28;20207;-84
2023/09/15 00:06:04;;;;;;;0.40;0.40;;;;;;;;;;5052628;28;20206;-84
2023/09/15 00:08:33;;;;;;;0.40;0.40;;;;;;;;;;5052759;28;20195;-84
2023/09/15 00:11:02;;;;;;;0.90;0.83;;;;;;;;;;5052947;28;20210;-83
2023/09/15 00:13:32;;;;;;;0.40;0.40;;;;;;;;;;5052648;28;20218;-84
2023/09/15 00:16:00;;;;;;;0.80;0.80;;;;;;;;;;5052404;28;20198;-83
2023/09/15 00:18:29;;;;;;;0.60;0.60;;;;;;;;;;5052358;28;20207;-83
2023/09/15 00:20:57;;;;;;;0.40;0.40;;;;;;;;;;5052640;28;20256;-83
2023/09/15 00:23:26;;;;;;;0.40;0.40;;;;;;;;;;5052815;28;20198;-84
2023/09/15 00:25:54;;;;;;;0.40;0.40;;;;;;;;;;5051286;28;20213;-86
2023/09/15 00:28:23;;;;;;;0.40;0.40;;;;;;;;;;5052422;28;20224;-83
2023/09/15 00:30:53;;;;;;;0.50;0.50;;;;;;;;;;5052728;28;20202;-80
2023/09/15 00:33:21;;;;;;;0.60;0.60;;;;;;;;;;5052408;28;20237;-80
2023/09/15 00:35:50;;;;;;;0.40;0.40;;;;;;;;;;5052879;28;20213;-81
2023/09/15 00:38:20;;;;;;;0.43;0.43;;;;;;;;;;5052921;28;20199;-81
2023/09/15 00:40:49;;;;;;;0.40;0.40;;;;;;;;;;5053070;28;20220;-80
2023/09/15 00:43:17;;;;;;;0.50;0.50;;;;;;;;;;5052482;28;20216;-81
2023/09/15 00:45:49;;;;;;;0.40;0.40;;;;;;;;;;5052844;28;20268;-80
2023/09/15 00:48:19;;;;;;;0.90;0.90;;;;;;;;;;5052445;28;20194;-81
2023/09/15 00:50:47;;;;;;;0.40;0.40;;;;;;;;;;5052538;28;20210;-84
2023/09/15 00:53:19;;;;;;;1.30;1.30;;;;;;;;;;5051808;28;20224;-84
2023/09/15 00:55:48;;;;;;;0.70;0.70;;;;;;;;;;5052761;28;20207;-83
2023/09/15 00:58:18;;;;;;;0.40;0.40;;;;;;;;;;5052526;28;20213;-83
2023/09/15 01:00:46;;;;;;;0.30;0.30;;;;;;;;;;5052433;28;20204;-83
2023/09/15 01:03:16;;;;;;;0.30;0.30;;;;;;;;;;5051689;28;20263;-84
2023/09/15 01:05:46;;;;;;;0.73;0.73;;;;;;;;;;5052521;28;20228;-84
2023/09/15 01:08:15;;;;;;;1.70;1.60;;;;;;;;;;5052468;28;20206;-84
2023/09/15 01:10:44;;;;;;;1.50;1.50;;;;;;;;;;5052428;28;20439;-83
2023/09/15 01:13:13;;;;;;;0.77;0.77;;;;;;;;;;5052084;28;20207;-85
2023/09/15 01:15:45;;;;;;;0.43;0.43;;;;;;;;;;5051869;28;20225;-84
2023/09/15 01:18:20;;;;;;;0.47;0.47;;;;;;;;;;5052264;28;20287;-84
2023/09/15 01:21:09;;;;;;;0.40;0.40;;;;;;;;;;5051565;28;20241;-84
2023/09/15 01:23:48;;;;;;;2.10;2.00;;;;;;;;;;5051538;28;20207;-86
2023/09/15 01:26:38;;;;;;;1.10;1.10;;;;;;;;;;5052266;28;20209;-80
2023/09/15 01:29:17;;;;;;;1.13;1.13;;;;;;;;;;5052037;28;20211;-81
2023/09/15 01:31:48;;;;;;;0.67;0.67;;;;;;;;;;5051799;28;20205;-81
2023/09/15 01:34:17;;;;;;;0.40;0.40;;;;;;;;;;5051676;28;20245;-81
2023/09/15 01:36:46;;;;;;;1.00;1.00;;;;;;;;;;5054407;28;20230;-80
2023/09/15 01:39:14;;;;;;;4.03;1.37;;;;;;;;;;5055873;28;20198;-80
2023/09/15 01:41:43;;;;;;;0.40;0.40;;;;;;;;;;5055821;28;20213;-81
2023/09/15 01:44:12;;;;;;;0.50;0.50;;;;;;;;;;5055861;28;20198;-81
2023/09/15 01:46:40;;;;;;;0.40;0.40;;;;;;;;;;5055484;28;20216;-81
2023/09/15 01:49:11;;;;;;;0.40;0.40;;;;;;;;;;5055449;28;20204;-80
2023/09/15 01:51:39;;;;;;;0.40;0.40;;;;;;;;;;5055849;28;20224;-81
2023/09/15 01:54:08;;;;;;;0.30;0.30;;;;;;;;;;5055644;28;20216;-80
2023/09/15 01:56:36;;;;;;;1.47;1.47;;;;;;;;;;5055678;28;20692;-81
2023/09/15 01:59:05;;;;;;;3.13;1.33;;;;;;;;;;5055631;28;20198;-80
2023/09/15 02:01:33;;;;;;;0.80;0.80;;;;;;;;;;5055674;28;20220;-80
2023/09/15 02:04:03;;;;;;;0.87;0.87;;;;;;;;;;5055710;28;20198;-81
2023/09/15 02:06:33;;;;;;;0.40;0.40;;;;;;;;;;5055296;28;20214;-80
2023/09/15 02:09:03;;;;;;;1.13;1.13;;;;;;;;;;5055774;28;20224;-80
2023/09/15 02:11:31;;;;;;;0.40;0.40;;;;;;;;;;5055629;28;20213;-80
2023/09/15 02:14:00;;;;;;;0.43;0.43;;;;;;;;;;5055138;28;20377;-80
2023/09/15 02:16:28;;;;;;;0.40;0.40;;;;;;;;;;5054822;28;20277;-80
2023/09/15 02:18:57;;;;;;;0.40;0.40;;;;;;;;;;5055326;28;20209;-80
2023/09/15 02:21:25;;;;;;;0.40;0.40;;;;;;;;;;5054822;28;20296;-80
2023/09/15 02:23:55;;;;;;;3.23;3.13;;;;;;;;;;5055107;28;20201;-80
2023/09/15 02:26:24;;;;;;;0.40;0.40;;;;;;;;;;5054786;28;20201;-81
2023/09/15 02:28:52;;;;;;;0.50;0.50;;;;;;;;;;5055227;28;20205;-81
2023/09/15 02:31:20;;;;;;;0.40;0.40;;;;;;;;;;5054802;28;20205;-84
2023/09/15 02:33:49;;;;;;;0.40;0.40;;;;;;;;;;5054191;28;20232;-84
2023/09/15 02:36:18;;;;;;;0.60;0.60;;;;;;;;;;5054390;28;20244;-84
2023/09/15 02:38:46;;;;;;;0.40;0.40;;;;;;;;;;5054762;28;20198;-84
2023/09/15 02:41:16;;;;;;;0.40;0.40;;;;;;;;;;5054485;28;20229;-83
2023/09/15 02:43:46;;;;;;;1.27;1.27;;;;;;;;;;5053872;28;20206;-84
2023/09/15 02:46:15;;;;;;;0.50;0.50;;;;;;;;;;5054586;28;20198;-84
2023/09/15 02:48:44;;;;;;;1.10;1.10;;;;;;;;;;5053766;28;20194;-84
2023/09/15 02:51:14;;;;;;;0.40;0.40;;;;;;;;;;5054271;28;20197;-84
2023/09/15 02:53:43;;;;;;;0.97;0.97;;;;;;;;;;5053715;28;20209;-83
2023/09/15 02:56:11;;;;;;;0.40;0.40;;;;;;;;;;5054265;28;20229;-83
2023/09/15 02:58:41;;;;;;;0.80;0.80;;;;;;;;;;5054308;28;20275;-84
2023/09/15 03:01:13;;;;;;;1.20;1.10;;;;;;;;;;5054201;28;20276;-84
2023/09/15 03:03:41;;;;;;;0.50;0.50;;;;;;;;;;5054450;28;20201;-84
2023/09/15 03:06:11;;;;;;;0.87;0.87;;;;;;;;;;5054156;28;20205;-84
2023/09/15 03:08:40;;;;;;;0.83;0.83;;;;;;;;;;5054288;28;20209;-84
2023/09/15 03:11:14;;;;;;;1.30;1.30;;;;;;;;;;5053695;28;20212;-85
2023/09/15 03:13:43;;;;;;;0.40;0.40;;;;;;;;;;5053484;28;20209;-84
2023/09/15 03:16:13;;;;;;;0.40;0.40;;;;;;;;;;5053675;28;20222;-84
2023/09/15 03:18:42;;;;;;;1.17;1.17;;;;;;;;;;5054033;28;20213;-84
2023/09/15 03:21:12;;;;;;;1.30;0.83;;;;;;;;;;5053411;28;20198;-83
2023/09/15 03:23:40;;;;;;;0.60;0.60;;;;;;;;;;5053768;28;20224;-84
2023/09/15 03:26:09;;;;;;;1.20;1.20;;;;;;;;;;5053744;28;20190;-83
2023/09/15 03:28:38;;;;;;;1.23;1.23;;;;;;;;;;5053578;28;20210;-84
2023/09/15 03:31:09;;;;;;;2.00;1.97;;;;;;;;;;5053342;28;20212;-84
2023/09/15 03:33:38;;;;;;;0.40;0.40;;;;;;;;;;5053366;28;20247;-83
2023/09/15 03:36:07;;;;;;;0.80;0.80;;;;;;;;;;5053511;28;20221;-84
2023/09/15 03:38:36;;;;;;;0.63;0.63;;;;;;;;;;5053478;28;20233;-81
2023/09/15 03:41:05;;;;;;;1.10;1.10;;;;;;;;;;5053808;28;20219;-81
2023/09/15 03:43:34;;;;;;;0.73;0.73;;;;;;;;;;5053307;28;20296;-80
2023/09/15 03:46:03;;;;;;;0.57;0.57;;;;;;;;;;5053846;28;20245;-80
2023/09/15 03:48:36;;;;;;;0.73;0.73;;;;;;;;;;5053159;28;20193;-81
2023/09/15 03:51:05;;;;;;;0.40;0.40;;;;;;;;;;5053676;28;20212;-80
2023/09/15 03:53:33;;;;;;;0.40;0.40;;;;;;;;;;5053834;28;20214;-80
2023/09/15 03:56:03;;;;;;;0.40;0.40;;;;;;;;;;5053453;28;20221;-80
2023/09/15 03:58:32;;;;;;;0.47;0.47;;;;;;;;;;5053326;28;20363;-80
2023/09/15 04:01:00;;;;;;;0.83;0.83;;;;;;;;;;5053169;28;20203;-80
2023/09/15 04:03:29;;;;;;;0.40;0.40;;;;;;;;;;5053283;28;20204;-81
2023/09/15 04:05:59;;;;;;;1.47;1.47;;;;;;;;;;5053782;28;20209;-80
2023/09/15 04:08:28;;;;;;;4.97;4.53;;;;;;;;;;5052794;28;20229;-84
2023/09/15 04:10:57;;;;;;;1.27;1.27;;;;;;;;;;5052401;28;20203;-84
2023/09/15 04:13:25;;;;;;;1.03;1.03;;;;;;;;;;5052389;28;20208;-84
2023/09/15 04:15:56;;;;;;;1.07;1.07;;;;;;;;;;5052670;28;20283;-84
2023/09/15 04:18:25;;;;;;;1.23;1.23;;;;;;;;;;5053033;28;20251;-84
2023/09/15 04:20:53;;;;;;;6.33;2.73;;;;;;;;;;5053237;28;20201;-84
2023/09/15 04:23:23;;;;;;;1.67;1.53;;;;;;;;;;5052877;28;20202;-84
2023/09/15 04:25:52;;;;;;;6.43;4.90;;;;;;;;;;5052430;28;20255;-84
2023/09/15 04:28:20;;;;;;;2.67;2.23;;;;;;;;;;5053153;28;20266;-84
2023/09/15 04:30:49;;;;;;;0.70;0.70;;;;;;;;;;5053003;28;20233;-84
2023/09/15 04:33:18;;;;;;;0.53;0.53;;;;;;;;;;5052197;28;20305;-83
2023/09/15 04:35:46;;;;;;;1.63;1.60;;;;;;;;;;5052389;28;20228;-80
2023/09/15 04:38:15;;;;;;;2.10;2.00;;;;;;;;;;5052792;28;20231;-80
2023/09/15 04:40:45;;;;;;;1.03;1.03;;;;;;;;;;5052767;28;20219;-80
2023/09/15 04:43:16;;;;;;;0.60;0.60;;;;;;;;;;5052461;28;20202;-81
2023/09/15 04:45:45;;;;;;;0.80;0.80;;;;;;;;;;5052473;28;20205;-80
2023/09/15 04:48:14;;;;;;;0.40;0.40;;;;;;;;;;5052308;28;20197;-80
2023/09/15 04:50:42;;;;;;;0.63;0.63;;;;;;;;;;5052562;28;20197;-80
2023/09/15 04:53:11;;;;;;;0.40;0.40;;;;;;;;;;5052185;28;20203;-80
2023/09/15 04:55:39;;;;;;;0.60;0.60;;;;;;;;;;5052486;28;20222;-81
2023/09/15 04:58:09;;;;;;;0.40;0.40;;;;;;;;;;5052794;28;20217;-81
2023/09/15 05:00:38;;;;;;;0.40;0.40;;;;;;;;;;5052680;28;20209;-81
2023/09/15 05:03:08;;;;;;;0.40;0.40;;;;;;;;;;5052213;28;20203;-83
2023/09/15 05:05:36;;;;;;;0.40;0.40;;;;;;;;;;5052532;28;20291;-83
2023/09/15 05:08:05;;;;;;;0.40;0.40;;;;;;;;;;5052519;28;20232;-83
2023/09/15 05:10:34;;;;;;;1.03;1.03;;;;;;;;;;5052738;28;20250;-83
2023/09/15 05:13:05;;;;;;;4.43;4.13;;;;;;;;;;5056991;28;20204;-83
2023/09/15 05:15:35;;;;;;;0.40;0.40;;;;;;;;;;5057091;28;20237;-83
2023/09/15 05:18:04;;;;;;;0.57;0.57;;;;;;;;;;5056697;28;20206;-83
2023/09/15 05:20:33;;;;;;;0.50;0.50;;;;;;;;;;5057101;28;20201;-81
2023/09/15 05:23:01;;;;;;;0.53;0.53;;;;;;;;;;5055866;28;20205;-81
2023/09/15 05:25:29;;;;;;;1.07;1.07;;;;;;;;;;5056490;28;20255;-81
2023/09/15 05:27:58;;;;;;;0.70;0.70;;;;;;;;;;5056076;28;20209;-81
2023/09/15 05:30:26;;;;;;;0.40;0.40;;;;;;;;;;5055462;28;20211;-81
2023/09/15 05:32:56;;;;;;;0.50;0.50;;;;;;;;;;5055817;28;20375;-81
2023/09/15 05:35:25;;;;;;;0.87;0.87;;;;;;;;;;5055809;28;20201;-81
2023/09/15 05:37:53;;;;;;;0.40;0.40;;;;;;;;;;5055055;28;20238;-80
2023/09/15 05:40:25;;;;;;;0.40;0.40;;;;;;;;;;5055897;28;20228;-81
2023/09/15 05:42:54;;;;;;;0.40;0.40;;;;;;;;;;5055446;28;20197;-80
2023/09/15 05:45:23;;;;;;;0.50;0.50;;;;;;;;;;5055532;28;20236;-80
2023/09/15 05:47:51;;;;;;;0.50;0.50;;;;;;;;;;5055136;28;20204;-80
2023/09/15 05:50:21;;;;;;;1.03;1.03;;;;;;;;;;5055313;28;20205;-80
2023/09/15 05:52:50;;;;;;;4.27;4.03;;;;;;;;;;5055194;28;20197;-80
2023/09/15 05:55:18;;;;;;;0.97;0.97;;;;;;;;;;5055718;28;20209;-80
2023/09/15 05:57:47;;;;;;;1.63;1.47;;;;;;;;;;5054669;28;20580;-82
2023/09/15 06:00:16;;;;;;;3.47;2.47;;;;;;;;;;5054690;28;20205;-83
2023/09/15 06:02:44;;;;;;;3.03;1.70;;;;;;;;;;5054850;28;20209;-83
2023/09/15 06:05:12;;;;;;;3.27;3.07;;;;;;;;;;5054868;28;20256;-83
2023/09/15 06:07:42;;;;;;;7.20;4.30;;;;;;;;;;5054286;28;20206;-83
2023/09/15 06:10:11;;;;;;;2.33;2.10;;;;;;;;;;5054432;28;20208;-82
2023/09/15 06:12:40;;;;;;;2.17;2.07;;;;;;;;;;5054562;28;20277;-83
2023/09/15 06:15:08;;;;;;;2.37;2.27;;;;;;;;;;5054331;28;20206;-82
2023/09/15 06:17:37;;;;;;;3.50;2.73;;;;;;;;;;5054312;28;20228;-83
2023/09/15 06:20:06;;;;;;;4.30;4.03;;;;;;;;;;5054643;28;20205;-83
2023/09/15 06:22:34;;;;;;;4.23;3.13;;;;;;;;;;5053087;28;20217;-83
2023/09/15 06:25:04;;;;;;;0.60;0.60;;;;;;;;;;5054109;28;20292;-83
2023/09/15 06:27:33;;;;;;;5.97;4.20;;;;;;;;;;5054629;28;20205;-82
2023/09/15 06:30:03;;;;;;;3.97;3.17;;;;;;;;;;5055090;28;20205;-80
2023/09/15 06:32:31;;;;;;;2.10;2.00;;;;;;;;;;5054675;28;20244;-81
2023/09/15 06:35:00;;;;;;;2.27;2.17;;;;;;;;;;5054827;28;20202;-80
2023/09/15 06:37:28;;;;;;;1.60;1.57;;;;;;;;;;5054952;28;20232;-78
2023/09/15 06:39:57;;;;;;;0.77;0.77;;;;;;;;;;5056198;28;20217;-80
2023/09/15 06:42:27;;;;;;;3.07;2.80;;;;;;;;;;5054520;28;20384;-81
2023/09/15 06:44:56;;;;;;;1.57;1.57;;;;;;;;;;5054229;28;20193;-79
2023/09/15 06:47:25;;;;;;;1.43;1.43;;;;;;;;;;5054569;28;20272;-80
2023/09/15 06:49:54;;;;;;;1.63;1.53;;;;;;;;;;5054357;28;20202;-81
2023/09/15 06:52:22;;;;;;;2.37;2.13;;;;;;;;;;5055003;28;20202;-80
2023/09/15 06:54:51;;;;;;;1.90;1.80;;;;;;;;;;5054438;28;20202;-80
2023/09/15 06:57:20;;;;;;;4.70;4.20;;;;;;;;;;5054196;28;20218;-81
2023/09/15 06:59:50;;;;;;;4.20;2.83;;;;;;;;;;5054199;28;20198;-80
2023/09/15 07:02:18;;;;;;;0.47;0.47;;;;;;;;;;5054130;28;20209;-83
2023/09/15 07:04:47;;;;;;;1.97;1.87;;;;;;;;;;5053809;28;20300;-84
2023/09/15 07:07:15;;;;;;;0.50;0.50;;;;;;;;;;5053674;28;20244;-83
2023/09/15 07:09:44;;;;;;;4.37;2.37;;;;;;;;;;5053963;28;20195;-83
2023/09/15 07:12:13;;;;;;;4.37;3.97;;;;;;;;;;5053681;28;20224;-83
2023/09/15 07:14:45;;;;;;;1.73;1.63;;;;;;;;;;5052805;28;20204;-83
2023/09/15 07:17:16;;;;;;;0.93;0.93;;;;;;;;;;5064034;28;20233;-83
2023/09/15 07:19:47;;;;;;;0.50;0.50;;;;;;;;;;5065147;28;20289;-83
2023/09/15 07:22:16;;;;;;;5.47;2.43;;;;;;;;;;5071506;28;20206;-83
2023/09/15 07:24:44;;;;;;;3.40;3.10;;;;;;;;;;5072004;28;20264;-83
2023/09/15 07:27:13;;;;;;;3.40;2.83;;;;;;;;;;5066653;28;20371;-83
2023/09/15 07:29:42;;;;;;;0.30;0.30;;;;;;;;;;5066782;28;20212;-83
2023/09/15 07:32:10;;;;;;;0.77;0.77;;;;;;;;;;5061909;28;20198;-83
2023/09/15 07:34:40;;;;;;;6.17;3.73;;;;;;;;;;5066828;28;20237;-84
2023/09/15 07:37:08;;;;;;;0.30;0.30;;;;;;;;;;5068013;28;20221;-83
2023/09/15 07:39:39;;;;;;;5.67;3.40;;;;;;;;;;5063325;28;20217;-83
2023/09/15 07:42:08;;;;;;;2.43;2.23;;;;;;;;;;5067557;28;20190;-83
2023/09/15 07:44:38;;;;;;;8.63;4.17;;;;;;;;;;5064561;28;20297;-84
2023/09/15 07:47:09;;;;;;;4.13;3.13;;;;;;;;;;5069644;28;20221;-83
2023/09/15 07:49:39;;;;;;;7.30;5.07;;;;;;;;;;5067939;28;20210;-83
2023/09/15 07:52:08;;;;;;;3.13;2.93;;;;;;;;;;5072543;28;20220;-83
2023/09/15 07:54:36;;;;;;;0.70;0.70;;;;;;;;;;5070667;28;20193;-83
2023/09/15 07:57:05;;;;;;;10.60;6.43;;;;;;;;;;5063205;28;20204;-84
2023/09/15 07:59:34;;;;;;;7.30;5.83;;;;;;;;;;5069148;28;20213;-83
2023/09/15 08:02:04;;;;;;;0.70;0.70;;;;;;;;;;5066302;28;20209;-83
2023/09/15 08:04:33;;;;;;;6.43;5.83;;;;;;;;;;5058268;28;20276;-83
2023/09/15 08:07:05;;;;;;;1.73;1.37;;;;;;;;;;5069933;28;20209;-84
2023/09/15 08:09:35;;;;;;;2.87;1.90;;;;;;;;;;5061488;28;20255;-83
2023/09/15 08:12:04;;;;;;;1.37;1.37;;;;;;;;;;5070313;28;20208;-83
2023/09/15 08:14:32;;;;;;;4.20;3.77;;;;;;;;;;5067684;28;20208;-81
2023/09/15 08:17:01;;;;;;;7.77;4.47;;;;;;;;;;5067990;28;20213;-81
2023/09/15 08:19:30;;;;;;;0.97;0.97;;;;;;;;;;5067007;28;20219;-81
2023/09/15 08:22:00;;;;;;;0.40;0.40;;;;;;;;;;5065524;28;20216;-81
2023/09/15 08:24:30;;;;;;;0.93;0.93;;;;;;;;;;5065974;28;20259;-81
2023/09/15 08:27:01;;;;;;;5.53;3.40;;;;;;;;;;5064022;28;20216;-81
2023/09/15 08:29:30;;;;;;;7.77;6.33;;;;;;;;;;5071275;28;20205;-81
2023/09/15 08:31:58;;;;;;;1.20;1.20;;;;;;;;;;5071961;28;20228;-80
2023/09/15 08:34:27;;;;;;;3.63;2.47;;;;;;;;;;5071793;28;20245;-80
2023/09/15 08:36:56;;;;;;;5.77;3.17;;;;;;;;;;5072180;28;20252;-80
2023/09/15 08:39:24;;;;;;;8.10;7.30;;;;;;;;;;5072359;28;20221;-80
2023/09/15 08:41:55;;;;;;;4.60;1.63;;;;;;;;;;5072665;28;20198;-84
2023/09/15 08:44:24;;;;;;;5.00;3.07;;;;;;;;;;5071422;28;20218;-84
2023/09/15 08:46:54;;;;;;;1.80;1.70;;;;;;;;;;5071503;28;20215;-85
2023/09/15 08:49:22;;;;;;;3.07;2.77;;;;;;;;;;5072602;28;20207;-84
2023/09/15 08:51:51;;;;;;;0.90;0.77;;;;;;;;;;5072723;28;20207;-84
2023/09/15 08:54:20;;;;;;;1.47;1.13;;;;;;;;;;5071632;28;20527;-84
2023/09/15 08:56:49;;;;;;;3.97;3.63;;;;;;;;;;5072009;28;20220;-84
2023/09/15 08:59:18;;;;;;;5.57;3.67;;;;;;;;;;5071933;28;20231;-84
2023/09/15 09:01:47;;;;;;;5.30;4.80;;;;;;;;;;5072091;28;20199;-84
2023/09/15 09:04:16;;;;;;;4.20;3.37;;;;;;;;;;5070945;28;20208;-84
2023/09/15 09:06:45;;;;;;;3.50;3.13;;;;;;;;;;5071827;28;20218;-84
2023/09/15 09:09:15;;;;;;;3.17;2.97;;;;;;;;;;5072061;28;20218;-84
2023/09/15 09:11:43;;;;;;;5.40;2.57;;;;;;;;;;5071265;28;20208;-83
2023/09/15 09:14:12;;;;;;;4.13;2.90;;;;;;;;;;5071985;28;20206;-84
2023/09/15 09:16:43;;;;;;;2.93;2.13;;;;;;;;;;5072125;28;20237;-84
2023/09/15 09:19:12;;;;;;;8.87;6.30;;;;;;;;;;5071807;28;20241;-83
2023/09/15 09:21:41;;;;;;;4.07;2.43;;;;;;;;;;5071968;28;20297;-84
2023/09/15 09:24:10;;;;;;;2.80;1.67;;;;;;;;;;5072099;28;20207;-84
2023/09/15 09:26:38;;;;;;;2.10;1.17;;;;;;;;;;5071812;28;20311;-84
2023/09/15 09:29:07;;;;;;;2.03;1.93;;;;;;;;;;5071607;28;20211;-84
2023/09/15 09:31:35;;;;;;;1.17;0.67;;;;;;;;;;5071329;28;20302;-84
2023/09/15 09:34:06;;;;;;;1.57;1.47;;;;;;;;;;5071106;28;20245;-84
2023/09/15 09:36:34;;;;;;;4.77;2.83;;;;;;;;;;5071610;28;20224;-84
2023/09/15 09:39:03;;;;;;;4.27;3.43;;;;;;;;;;5071853;28;20288;-84
2023/09/15 09:41:34;;;;;;;1.97;1.73;;;;;;;;;;5072196;28;20201;-84
2023/09/15 09:44:04;;;;;;;8.60;5.27;;;;;;;;;;5071279;28;20211;-84
2023/09/15 09:46:33;;;;;;;3.67;2.90;;;;;;;;;;5071973;28;20203;-84
2023/09/15 09:49:02;;;;;;;6.80;3.60;;;;;;;;;;5071735;28;20275;-84
2023/09/15 09:51:32;;;;;;;2.57;1.90;;;;;;;;;;5072415;28;20205;-84
2023/09/15 09:54:01;;;;;;;1.17;1.17;;;;;;;;;;5072210;28;20205;-84
2023/09/15 09:56:33;;;;;;;6.83;3.77;;;;;;;;;;5071838;28;20204;-84
2023/09/15 09:59:10;;;;;;;2.00;1.80;;;;;;;;;;5075125;28;20228;-84
2023/09/15 10:01:38;;;;;;;3.90;3.60;;;;;;;;;;5075871;28;20202;-84
2023/09/15 10:04:07;;;;;;;2.13;2.00;;;;;;;;;;5075303;28;20202;-84
2023/09/15 10:06:38;;;;;;;7.23;3.53;;;;;;;;;;5075544;28;20203;-84
2023/09/15 10:09:07;;;;;;;4.10;3.27;;;;;;;;;;5075299;28;20195;-84
2023/09/15 10:11:35;;;;;;;0.70;0.70;;;;;;;;;;5075571;28;20269;-84
2023/09/15 10:14:06;;;;;;;0.97;0.93;;;;;;;;;;5075323;28;20187;-84
2023/09/15 10:16:35;;;;;;;0.80;0.80;;;;;;;;;;5074905;28;20257;-84
2023/09/15 10:19:04;;;;;;;4.67;3.70;;;;;;;;;;5075310;28;20242;-84
2023/09/15 10:21:35;;;;;;;2.67;2.47;;;;;;;;;;5074835;28;20213;-84
2023/09/15 10:24:07;;;;;;;7.77;4.57;;;;;;;;;;5075351;28;20466;-84
2023/09/15 10:26:39;;;;;;;5.97;4.37;;;;;;;;;;5074984;28;20207;-84
2023/09/15 10:29:07;;;;;;;3.00;2.70;;;;;;;;;;5074820;28;20185;-83
2023/09/15 10:31:36;;;;;;;1.67;0.80;;;;;;;;;;5074413;28;20206;-84
2023/09/15 10:34:06;;;;;;;0.40;0.40;;;;;;;;;;5074405;28;20243;-84
2023/09/15 10:36:34;;;;;;;4.77;3.90;;;;;;;;;;5074699;28;20219;-84
2023/09/15 10:39:14;;;;;;;3.27;2.20;;;;;;;;;;5075556;28;20228;-84
2023/09/15 10:41:43;;;;;;;5.40;3.80;;;;;;;;;;5075278;28;20195;-84
2023/09/15 10:44:11;;;;;;;5.30;3.70;;;;;;;;;;5074590;28;20221;-84
2023/09/15 10:46:40;;;;;;;5.33;3.77;;;;;;;;;;5074783;28;20201;-84
2023/09/15 10:49:16;;;;;;;1.57;1.47;;;;;;;;;;5074294;28;20204;-85
2023/09/15 10:51:54;;;;;;;3.37;2.63;;;;;;;;;;5074272;28;20295;-84
2023/09/15 10:54:25;;;;;;;8.50;3.27;;;;;;;;;;5073753;28;20204;-84
2023/09/15 10:56:54;;;;;;;3.60;2.90;;;;;;;;;;5074150;28;20200;-84
2023/09/15 10:59:22;;;;;;;4.50;3.73;;;;;;;;;;5074123;28;20243;-84
2023/09/15 11:01:51;;;;;;;2.33;1.03;;;;;;;;;;5073355;28;20212;-84
2023/09/15 11:04:21;;;;;;;6.60;3.97;;;;;;;;;;5073734;28;20209;-83
2023/09/15 11:06:50;;;;;;;3.60;2.67;;;;;;;;;;5074542;28;20199;-84
2023/09/15 11:09:19;;;;;;;4.30;1.93;;;;;;;;;;5073392;28;20189;-84
2023/09/15 11:11:50;;;;;;;2.37;2.17;;;;;;;;;;5073767;28;20200;-84
2023/09/15 11:14:19;;;;;;;5.07;3.67;;;;;;;;;;5073431;28;20195;-83
2023/09/15 11:16:49;;;;;;;6.37;3.23;;;;;;;;;;5074030;28;20208;-84
2023/09/15 11:19:17;;;;;;;2.43;2.13;;;;;;;;;;5073377;28;20220;-84
2023/09/15 11:21:46;;;;;;;4.80;3.60;;;;;;;;;;5073344;28;20214;-83
2023/09/15 11:24:16;;;;;;;3.63;2.63;;;;;;;;;;5074348;28;20247;-84
2023/09/15 11:26:47;;;;;;;3.80;2.97;;;;;;;;;;5073908;28;20234;-83
2023/09/15 11:29:17;;;;;;;4.87;3.90;;;;;;;;;;5073440;28;20201;-84
2023/09/15 11:31:46;;;;;;;5.70;3.80;;;;;;;;;;5073201;28;20210;-84
2023/09/15 11:34:17;;;;;;;5.10;3.90;;;;;;;;;;5072982;28;20265;-84
2023/09/15 11:36:46;;;;;;;3.70;3.37;;;;;;;;;;5073548;28;20229;-84
2023/09/15 11:39:15;;;;;;;1.73;1.63;;;;;;;;;;5073052;28;20202;-84
2023/09/15 11:41:52;;;;;;;7.63;2.33;;;;;;;;;;5073307;28;20397;-84
2023/09/15 11:44:24;;;;;;;4.50;2.47;;;;;;;;;;5073144;28;20211;-84
2023/09/15 11:46:53;;;;;;;3.77;2.33;;;;;;;;;;5072927;28;20204;-84
2023/09/15 11:49:22;;;;;;;1.93;1.80;;;;;;;;;;5072744;28;20230;-83
2023/09/15 11:51:50;;;;;;;4.47;2.93;;;;;;;;;;5072937;28;20233;-84
2023/09/15 11:54:19;;;;;;;4.20;2.87;;;;;;;;;;5072888;28;20197;-84
2023/09/15 11:56:48;;;;;;;4.17;3.80;;;;;;;;;;5072411;28;20208;-83
2023/09/15 11:59:17;;;;;;;3.03;2.63;;;;;;;;;;5072527;28;20258;-84
2023/09/15 12:01:48;;;;;;;3.03;2.80;;;;;;;;;;5072857;28;20209;-84
2023/09/15 12:04:17;;;;;;;2.13;1.83;;;;;;;;;;5072911;28;20209;-84
2023/09/15 12:06:48;;;;;;;3.27;1.97;;;;;;;;;;5072707;28;20208;-84
2023/09/15 12:09:16;;;;;;;3.33;3.07;;;;;;;;;;5072453;28;20209;-84
2023/09/15 12:11:45;;;;;;;9.53;2.40;;;;;;;;;;5072769;28;20205;-84
2023/09/15 12:14:14;;;;;;;3.33;2.37;;;;;;;;;;5073074;28;20202;-84
2023/09/15 12:16:45;;;;;;;1.33;1.23;;;;;;;;;;5072487;28;20208;-84
2023/09/15 12:19:16;;;;;;;1.97;1.10;;;;;;;;;;5072651;28;20206;-84
2023/09/15 12:21:52;;;;;;;1.20;1.10;;;;;;;;;;5072105;28;20224;-80
2023/09/15 12:24:21;;;;;;;5.53;4.20;;;;;;;;;;5072565;28;20206;-80
2023/09/15 12:26:50;;;;;;;2.70;2.50;;;;;;;;;;5073256;28;20201;-81
2023/09/15 12:29:19;;;;;;;3.60;3.17;;;;;;;;;;5073107;28;20195;-81
2023/09/15 12:31:47;;;;;;;7.73;4.90;;;;;;;;;;5074192;28;20204;-81
2023/09/15 12:34:21;;;;;;;1.17;1.17;;;;;;;;;;5073432;28;20296;-81
2023/09/15 12:36:52;;;;;;;5.73;2.10;;;;;;;;;;5073320;28;20291;-81
2023/09/15 12:39:21;;;;;;;0.37;0.37;;;;;;;;;;5073158;28;20212;-81
2023/09/15 12:41:59;;;;;;;7.00;5.13;;;;;;;;;;5073161;28;20223;-81
2023/09/15 12:44:42;;;;;;;6.10;3.57;;;;;;;;;;5072476;28;20198;-81
2023/09/15 12:47:11;;;;;;;8.23;4.17;;;;;;;;;;5073601;28;20203;-80
2023/09/15 12:49:41;;;;;;;3.47;2.80;;;;;;;;;;5072854;28;20214;-81
2023/09/15 12:52:10;;;;;;;4.50;4.07;;;;;;;;;;5072672;28;20195;-81
2023/09/15 12:54:42;;;;;;;1.13;1.13;;;;;;;;;;5072746;28;20226;-81
2023/09/15 12:57:11;;;;;;;5.23;2.37;;;;;;;;;;5073062;28;20206;-81
2023/09/15 12:59:39;;;;;;;4.07;2.73;;;;;;;;;;5072700;28;20309;-85
2023/09/15 13:02:08;;;;;;;4.77;3.83;;;;;;;;;;5072638;28;20235;-84
2023/09/15 13:04:39;;;;;;;3.80;2.50;;;;;;;;;;5072072;28;20260;-85
2023/09/15 13:07:09;;;;;;;4.60;3.70;;;;;;;;;;5072362;28;20207;-85
2023/09/15 13:09:40;;;;;;;4.20;2.97;;;;;;;;;;5072747;28;20210;-85
2023/09/15 13:12:23;;;;;;;6.63;4.07;;;;;;;;;;5072045;28;20198;-84
2023/09/15 13:14:52;;;;;;;6.50;4.73;;;;;;;;;;5072313;28;20202;-85
2023/09/15 13:17:22;;;;;;;7.83;3.70;;;;;;;;;;5072731;28;20208;-85
2023/09/15 13:19:50;;;;;;;6.40;4.93;;;;;;;;;;5072584;28;20234;-81
2023/09/15 13:22:20;;;;;;;2.47;2.27;;;;;;;;;;5071846;28;20270;-81
2023/09/15 13:24:49;;;;;;;2.20;1.57;;;;;;;;;;5071709;28;20229;-82
2023/09/15 13:27:17;;;;;;;5.60;3.87;;;;;;;;;;5071980;28;20200;-81
2023/09/15 13:29:48;;;;;;;1.80;1.70;;;;;;;;;;5071931;28;20219;-81
2023/09/15 13:32:17;;;;;;;6.23;3.60;;;;;;;;;;5073724;28;20232;-81
2023/09/15 13:34:46;;;;;;;4.00;3.03;;;;;;;;;;5076028;28;20274;-82
2023/09/15 13:37:14;;;;;;;2.47;1.97;;;;;;;;;;5076241;28;20252;-81
2023/09/15 13:39:44;;;;;;;2.27;2.07;;;;;;;;;;5076258;28;20203;-81
2023/09/15 13:42:12;;;;;;;2.60;2.40;;;;;;;;;;5076169;28;20252;-81
2023/09/15 13:44:42;;;;;;;2.30;2.20;;;;;;;;;;5075931;28;20298;-85
2023/09/15 13:47:10;;;;;;;1.83;1.63;;;;;;;;;;5075877;28;20202;-84
2023/09/15 13:49:41;;;;;;;9.20;6.33;;;;;;;;;;5075580;28;20274;-85
2023/09/15 13:52:09;;;;;;;2.93;2.33;;;;;;;;;;5075796;28;20211;-80
2023/09/15 13:54:38;;;;;;;1.17;1.10;;;;;;;;;;5075534;28;20202;-80
2023/09/15 13:57:08;;;;;;;3.63;3.30;;;;;;;;;;5076106;28;20202;-80
2023/09/15 13:59:54;;;;;;;4.17;2.57;;;;;;;;;;5075467;28;20209;-80
2023/09/15 14:02:23;;;;;;;3.17;2.90;;;;;;;;;;5075747;28;20217;-80
2023/09/15 14:04:52;;;;;;;2.63;2.43;;;;;;;;;;5075270;28;20198;-80
2023/09/15 14:07:21;;;;;;;5.27;1.80;;;;;;;;;;5074996;28;20297;-80
2023/09/15 14:09:49;;;;;;;5.53;4.50;;;;;;;;;;5075355;28;20300;-80
2023/09/15 14:12:19;;;;;;;2.60;1.60;;;;;;;;;;5075463;28;20186;-80
2023/09/15 14:14:47;;;;;;;6.97;3.83;;;;;;;;;;5075174;28;20237;-80
2023/09/15 14:17:16;;;;;;;5.03;3.67;;;;;;;;;;5075034;28;20207;-80
2023/09/15 14:19:44;;;;;;;9.17;6.70;;;;;;;;;;5074895;28;20193;-79
2023/09/15 14:22:13;;;;;;;8.73;5.20;;;;;;;;;;5075140;28;20212;-81
2023/09/15 14:24:41;;;;;;;7.87;6.10;;;;;;;;;;5075041;28;20201;-81
2023/09/15 14:27:10;;;;;;;11.07;6.50;;;;;;;;;;5074896;28;20207;-84
2023/09/15 14:29:39;;;;;;;12.20;5.33;;;;;;;;;;5075853;28;20316;-84
2023/09/15 14:32:08;;;;;;;6.23;5.27;;;;;;;;;;5075395;28;20196;-81
2023/09/15 14:34:39;;;;;;;3.87;2.07;;;;;;;;;;5074416;28;20305;-81
2023/09/15 14:37:08;;;;;;;8.07;4.47;;;;;;;;;;5075251;28;20270;-80
2023/09/15 14:39:36;;;;;;;5.53;3.40;;;;;;;;;;5074840;28;20322;-80
2023/09/15 14:42:06;;;;;;;4.27;2.27;;;;;;;;;;5074468;28;20236;-86
2023/09/15 14:44:34;;;;;;;4.90;3.53;;;;;;;;;;5073508;28;20203;-85
2023/09/15 14:47:04;;;;;;;5.07;4.57;;;;;;;;;;5074842;28;20201;-85
2023/09/15 14:49:33;;;;;;;5.57;3.93;;;;;;;;;;5074936;28;20205;-85
2023/09/15 14:52:03;;;;;;;7.30;4.40;;;;;;;;;;5074793;28;20197;-86
2023/09/15 14:54:31;;;;;;;2.40;2.20;;;;;;;;;;5074802;28;20194;-86
2023/09/15 14:57:00;;;;;;;4.83;3.50;;;;;;;;;;5075328;28;20202;-85